createdAt,value
2023-04-10T00:01:12.282Z,88.92
2023-04-10T00:03:41.535Z,88.80
2023-04-10T00:06:11.879Z,88.78
2023-04-10T00:08:40.091Z,88.33
2023-04-10T00:11:08.680Z,88.70
2023-04-10T00:13:36.823Z,88.67
2023-04-10T00:16:05.352Z,89.07
2023-04-10T00:18:34.119Z,88.92
2023-04-10T00:21:04.114Z,88.80
2023-04-10T00:23:35.145Z,88.51
2023-04-10T00:26:03.384Z,88.93
2023-04-10T00:28:31.931Z,89.67
2023-04-10T00:31:00.434Z,89.68
2023-04-10T00:33:28.680Z,89.95
2023-04-10T00:35:57.096Z,89.79
2023-04-10T00:38:25.343Z,89.81
2023-04-10T00:40:55.408Z,90.17
2023-04-10T00:43:24.498Z,90.62
2023-04-10T00:45:59.994Z,91.35
2023-04-10T00:48:28.635Z,91.44
2023-04-10T00:50:56.855Z,91.58
2023-04-10T00:53:25.017Z,91.88
2023-04-10T00:55:56.031Z,91.79
2023-04-10T00:58:24.505Z,92.19
2023-04-10T01:00:52.894Z,91.62
2023-04-10T01:03:22.834Z,91.79
2023-04-10T01:06:00.763Z,91.98
2023-04-10T01:08:37.897Z,92.51
2023-04-10T01:11:14.875Z,93.14
2023-04-10T01:13:51.959Z,93.92
2023-04-10T01:16:26.227Z,94.19
2023-04-10T01:19:02.271Z,93.80
2023-04-10T01:21:32.607Z,93.31
2023-04-10T01:24:18.000Z,93.12
2023-04-10T01:27:03.140Z,92.31
2023-04-10T01:29:35.939Z,92.22
2023-04-10T01:32:09.562Z,91.94
2023-04-10T01:34:42.401Z,91.40
2023-04-10T01:37:17.458Z,91.35
2023-04-10T01:39:51.518Z,91.21
2023-04-10T01:42:22.332Z,91.39
2023-04-10T01:44:55.051Z,91.24
2023-04-10T01:47:25.659Z,90.85
2023-04-10T01:49:54.923Z,90.43
2023-04-10T01:52:25.136Z,90.13
2023-04-10T01:55:04.712Z,90.53
2023-04-10T01:57:40.451Z,91.97
2023-04-10T02:00:12.403Z,92.72
2023-04-10T02:02:44.256Z,92.97
2023-04-10T02:05:12.843Z,93.25
2023-04-10T02:07:46.809Z,92.94
2023-04-10T02:10:23.719Z,92.86
2023-04-10T02:12:56.626Z,93.06
2023-04-10T02:15:30.238Z,93.36
2023-04-10T02:18:00.968Z,93.06
2023-04-10T02:20:30.054Z,93.20
2023-04-10T02:23:02.373Z,93.08
2023-04-10T02:25:33.014Z,93.25
2023-04-10T02:28:05.310Z,92.71
2023-04-10T02:30:35.937Z,92.47
2023-04-10T02:33:04.608Z,92.73
2023-04-10T02:35:34.817Z,92.43
2023-04-10T02:38:04.852Z,92.37
2023-04-10T02:40:38.055Z,92.46
2023-04-10T02:43:13.574Z,92.00
2023-04-10T02:45:43.929Z,92.22
2023-04-10T02:48:15.365Z,92.43
2023-04-10T02:50:46.547Z,93.21
2023-04-10T02:53:15.525Z,93.63
2023-04-10T02:55:43.707Z,93.54
2023-04-10T02:58:13.802Z,93.66
2023-04-10T03:00:49.505Z,93.64
2023-04-10T03:03:24.134Z,93.48
2023-04-10T03:05:55.805Z,93.24
2023-04-10T03:08:30.444Z,92.94
2023-04-10T03:10:58.650Z,92.80
2023-04-10T03:13:27.037Z,92.66
2023-04-10T03:15:56.965Z,92.83
2023-04-10T03:18:25.508Z,92.52
2023-04-10T03:20:56.191Z,92.57
2023-04-10T03:23:25.068Z,92.80
2023-04-10T03:25:55.359Z,92.66
2023-04-10T03:28:30.002Z,93.11
2023-04-10T03:31:00.671Z,93.13
2023-04-10T03:33:30.279Z,92.57
2023-04-10T03:35:59.300Z,92.82
2023-04-10T03:38:28.053Z,93.31
2023-04-10T03:40:56.593Z,93.49
2023-04-10T03:43:27.203Z,93.55
2023-04-10T03:45:55.748Z,93.66
2023-04-10T03:48:28.350Z,94.01
2023-04-10T03:50:56.882Z,93.77
2023-04-10T03:53:25.222Z,93.75
2023-04-10T03:55:55.076Z,94.06
2023-04-10T03:58:25.445Z,93.95
2023-04-10T04:00:55.738Z,94.24
2023-04-10T04:03:38.034Z,94.13
2023-04-10T04:06:24.870Z,94.46
2023-04-10T04:09:08.181Z,94.58
2023-04-10T04:11:43.152Z,94.94
2023-04-10T04:14:29.073Z,95.19
2023-04-10T04:17:12.529Z,95.20
2023-04-10T04:20:21.045Z,94.93
2023-04-10T04:23:09.902Z,94.71
2023-04-10T04:26:04.700Z,95.46
2023-04-10T04:28:57.154Z,94.83
2023-04-10T04:31:44.105Z,94.62
2023-04-10T04:34:34.647Z,94.36
2023-04-10T04:37:14.576Z,93.96
2023-04-10T04:39:58.758Z,94.55
2023-04-10T04:42:45.837Z,94.54
2023-04-10T04:45:27.561Z,94.11
2023-04-10T04:48:16.254Z,94.24
2023-04-10T04:51:02.653Z,93.81
2023-04-10T04:53:43.453Z,93.81
2023-04-10T04:56:32.166Z,93.70
2023-04-10T04:59:20.542Z,94.16
2023-04-10T05:02:27.431Z,93.87
2023-04-10T05:05:22.316Z,93.14
2023-04-10T05:08:16.112Z,92.64
2023-04-10T05:11:09.257Z,93.50
2023-04-10T05:14:15.610Z,93.89
2023-04-10T05:17:10.596Z,93.15
2023-04-10T05:19:57.996Z,92.47
2023-04-10T05:23:01.705Z,91.73
2023-04-10T05:25:56.615Z,91.46
2023-04-10T05:28:46.847Z,91.57
2023-04-10T05:31:44.143Z,91.07
2023-04-10T05:34:17.228Z,90.58
2023-04-10T05:37:14.858Z,90.67
2023-04-10T05:40:12.619Z,90.89
2023-04-10T05:43:19.097Z,90.65
2023-04-10T05:46:08.074Z,90.32
2023-04-10T05:49:11.617Z,88.81
2023-04-10T05:51:54.515Z,88.77
2023-04-10T05:54:38.968Z,88.12
2023-04-10T05:57:19.870Z,86.88
2023-04-10T06:00:02.479Z,86.89
2023-04-10T06:02:52.809Z,86.72
2023-04-10T06:05:26.532Z,86.14
2023-04-10T06:08:00.635Z,85.83
2023-04-10T06:10:30.730Z,85.62
2023-04-10T06:12:59.464Z,85.78
2023-04-10T06:15:27.942Z,86.84
2023-04-10T06:17:58.272Z,88.27
2023-04-10T06:20:26.527Z,88.45
2023-04-10T06:22:55.135Z,88.24
2023-04-10T06:25:23.439Z,87.51
2023-04-10T06:27:51.972Z,86.15
2023-04-10T06:30:20.099Z,85.05
2023-04-10T06:32:48.591Z,83.38
2023-04-10T06:35:19.364Z,81.08
2023-04-10T06:37:47.746Z,78.27
2023-04-10T06:40:17.183Z,77.46
2023-04-10T06:42:45.454Z,77.29
2023-04-10T06:45:17.355Z,77.90
2023-04-10T06:47:45.792Z,79.47
2023-04-10T06:50:14.085Z,82.91
2023-04-10T06:52:46.085Z,81.65
2023-04-10T06:55:14.341Z,81.69
2023-04-10T06:57:42.679Z,79.38
2023-04-10T07:00:12.407Z,76.50
2023-04-10T07:02:40.834Z,76.01
2023-04-10T07:05:10.338Z,65.55
2023-04-10T07:07:38.835Z,53.00
2023-04-10T07:10:10.346Z,48.61
2023-04-10T07:12:38.629Z,45.07
2023-04-10T07:15:08.973Z,42.18
2023-04-10T07:17:37.437Z,42.75
2023-04-10T07:20:07.165Z,37.04
2023-04-10T07:22:39.501Z,37.20
2023-04-10T07:25:11.380Z,32.08
2023-04-10T07:27:42.684Z,30.84
2023-04-10T07:30:13.933Z,27.51
2023-04-10T07:32:45.583Z,26.48
2023-04-10T07:35:19.034Z,31.52
2023-04-10T07:37:52.873Z,34.59
2023-04-10T07:40:24.138Z,30.92
2023-04-10T07:42:54.779Z,34.38
2023-04-10T07:45:29.692Z,34.50
2023-04-10T07:48:00.084Z,29.68
2023-04-10T07:50:29.439Z,28.13
2023-04-10T07:52:57.916Z,30.33
2023-04-10T07:55:28.733Z,33.41
2023-04-10T07:57:57.373Z,29.44
2023-04-10T08:00:26.196Z,31.33
2023-04-10T08:02:54.829Z,30.91
2023-04-10T08:05:23.048Z,28.93
2023-04-10T08:07:51.526Z,34.41
2023-04-10T08:10:20.075Z,31.47
2023-04-10T08:12:50.253Z,31.13
2023-04-10T08:15:19.065Z,34.19
2023-04-10T08:17:47.211Z,34.15
2023-04-10T08:20:15.638Z,36.55
2023-04-10T08:22:43.852Z,36.85
2023-04-10T08:25:12.397Z,33.69
2023-04-10T08:27:41.075Z,29.55
2023-04-10T08:30:11.815Z,26.84
2023-04-10T08:32:40.370Z,31.20
2023-04-10T08:35:09.665Z,34.97
2023-04-10T08:37:38.629Z,34.36
2023-04-10T08:40:07.733Z,32.17
2023-04-10T08:42:37.600Z,29.51
2023-04-10T08:45:08.619Z,30.90
2023-04-10T08:47:42.331Z,35.03
2023-04-10T08:50:14.403Z,33.06
2023-04-10T08:52:45.249Z,31.48
2023-04-10T08:55:15.142Z,33.68
2023-04-10T08:57:54.103Z,32.19
2023-04-10T09:00:31.784Z,32.24
2023-04-10T09:03:05.158Z,37.06
2023-04-10T09:05:41.947Z,33.31
2023-04-10T09:08:12.406Z,29.65
2023-04-10T09:10:41.007Z,30.38
2023-04-10T09:13:09.084Z,34.72
2023-04-10T09:15:58.399Z,41.03
2023-04-10T09:18:42.333Z,36.28
2023-04-10T09:21:11.901Z,37.77
2023-04-10T09:23:40.197Z,36.87
2023-04-10T09:26:25.864Z,32.72
2023-04-10T09:29:02.685Z,33.52
2023-04-10T09:31:33.722Z,30.79
2023-04-10T09:34:13.243Z,29.80
2023-04-10T09:36:42.772Z,30.94
2023-04-10T09:39:12.094Z,36.87
2023-04-10T09:41:51.908Z,39.85
2023-04-10T09:44:31.415Z,33.90
2023-04-10T09:47:00.700Z,32.53
2023-04-10T09:49:31.028Z,36.67
2023-04-10T09:52:02.668Z,39.16
2023-04-10T09:54:39.012Z,40.14
2023-04-10T09:57:10.701Z,36.26
2023-04-10T09:59:47.758Z,35.98
2023-04-10T10:02:19.912Z,34.81
2023-04-10T10:04:52.550Z,36.10
2023-04-10T10:07:24.176Z,33.54
2023-04-10T10:09:55.597Z,36.73
2023-04-10T10:12:31.140Z,41.10
2023-04-10T10:15:04.051Z,35.53
2023-04-10T10:17:38.633Z,34.68
2023-04-10T10:20:11.752Z,37.91
2023-04-10T10:22:41.495Z,38.71
2023-04-10T10:25:11.004Z,37.73
2023-04-10T10:27:41.134Z,37.78
2023-04-10T10:30:28.070Z,37.67
2023-04-10T10:33:00.143Z,34.29
2023-04-10T10:35:32.777Z,34.22
2023-04-10T10:38:02.892Z,33.74
2023-04-10T10:40:34.752Z,35.80
2023-04-10T10:43:10.563Z,34.23
2023-04-10T10:45:45.444Z,38.03
2023-04-10T10:48:15.494Z,38.28
2023-04-10T10:50:57.429Z,37.71
2023-04-10T10:53:37.989Z,36.75
2023-04-10T10:56:37.893Z,36.70
2023-04-10T10:59:06.128Z,40.65
2023-04-10T11:01:34.544Z,40.43
2023-04-10T11:04:42.646Z,37.78
2023-04-10T11:07:13.363Z,35.50
2023-04-10T11:09:52.574Z,40.02
2023-04-10T11:12:26.124Z,39.56
2023-04-10T11:14:59.760Z,36.92
2023-04-10T11:17:58.364Z,36.52
2023-04-10T11:20:27.857Z,39.16
2023-04-10T11:23:11.911Z,39.72
2023-04-10T11:25:49.522Z,40.52
2023-04-10T11:28:38.229Z,41.21
2023-04-10T11:31:19.786Z,38.69
2023-04-10T11:33:48.884Z,39.21
2023-04-10T11:36:18.628Z,44.30
2023-04-10T11:38:59.469Z,43.86
2023-04-10T11:41:30.500Z,45.68
2023-04-10T11:43:59.323Z,46.90
2023-04-10T11:46:27.640Z,47.82
2023-04-10T11:48:57.402Z,46.36
2023-04-10T11:51:27.373Z,44.12
2023-04-10T11:54:08.137Z,42.34
2023-04-10T11:56:37.903Z,42.55
2023-04-10T11:59:10.975Z,43.97
2023-04-10T12:01:42.713Z,44.73
2023-04-10T12:04:18.712Z,38.42
2023-04-10T12:06:48.537Z,36.91
2023-04-10T12:09:19.674Z,38.94
2023-04-10T12:11:53.082Z,40.12
2023-04-10T12:14:22.303Z,37.01
2023-04-10T12:16:51.690Z,38.22
2023-04-10T12:19:20.771Z,36.35
2023-04-10T12:21:49.601Z,37.04
2023-04-10T12:24:43.515Z,38.81
2023-04-10T12:27:17.826Z,37.04
2023-04-10T12:29:46.456Z,36.97
2023-04-10T12:32:15.128Z,39.86
2023-04-10T12:34:43.787Z,38.85
2023-04-10T12:37:11.868Z,38.99
2023-04-10T12:39:40.136Z,38.63
2023-04-10T12:42:17.577Z,39.37
2023-04-10T12:44:53.200Z,38.63
2023-04-10T12:47:21.661Z,38.32
2023-04-10T12:50:04.574Z,37.38
2023-04-10T12:52:33.033Z,38.61
2023-04-10T12:55:11.673Z,38.91
2023-04-10T12:57:42.488Z,40.27
2023-04-10T13:00:13.027Z,38.89
2023-04-10T13:02:42.540Z,40.28
2023-04-10T13:05:12.111Z,38.45
2023-04-10T13:07:41.247Z,39.92
2023-04-10T13:10:10.746Z,41.17
2023-04-10T13:12:40.201Z,41.76
2023-04-10T13:15:10.850Z,38.67
2023-04-10T13:17:40.965Z,40.32
2023-04-10T13:20:11.317Z,39.58
2023-04-10T13:22:39.475Z,38.07
2023-04-10T13:25:08.257Z,38.08
2023-04-10T13:27:36.385Z,36.49
2023-04-10T13:30:06.241Z,36.36
2023-04-10T13:32:36.149Z,37.85
2023-04-10T13:35:04.690Z,39.02
2023-04-10T13:37:32.780Z,36.11
2023-04-10T13:40:00.973Z,39.46
2023-04-10T13:42:29.129Z,38.24
2023-04-10T13:44:57.171Z,36.57
2023-04-10T13:47:25.281Z,38.32
2023-04-10T13:49:55.416Z,37.95
2023-04-10T13:52:23.765Z,35.28
2023-04-10T13:54:52.246Z,33.84
2023-04-10T13:57:20.457Z,34.02
2023-04-10T13:59:48.636Z,34.13
2023-04-10T14:02:17.746Z,36.98
2023-04-10T14:04:47.551Z,33.11
2023-04-10T14:07:17.182Z,35.11
2023-04-10T14:09:46.378Z,33.00
2023-04-10T14:12:16.421Z,33.87
2023-04-10T14:14:46.650Z,37.14
2023-04-10T14:17:14.880Z,33.38
2023-04-10T14:19:43.367Z,33.99
2023-04-10T14:22:11.536Z,36.57
2023-04-10T14:24:40.879Z,34.59
2023-04-10T14:27:11.534Z,35.05
2023-04-10T14:29:50.632Z,32.94
2023-04-10T14:32:22.936Z,33.96
2023-04-10T14:34:51.135Z,35.18
2023-04-10T14:37:19.827Z,34.79
2023-04-10T14:39:49.302Z,35.64
2023-04-10T14:42:17.558Z,35.82
2023-04-10T14:44:45.756Z,37.53
2023-04-10T14:47:14.442Z,36.29
2023-04-10T14:49:42.979Z,37.01
2023-04-10T14:52:11.233Z,34.77
2023-04-10T14:54:39.283Z,35.25
2023-04-10T14:57:10.037Z,34.49
2023-04-10T14:59:38.427Z,35.69
2023-04-10T15:02:06.955Z,34.07
2023-04-10T15:04:35.380Z,34.83
2023-04-10T15:07:03.645Z,36.81
2023-04-10T15:09:31.812Z,35.52
2023-04-10T15:11:59.931Z,35.00
2023-04-10T15:14:30.101Z,36.73
2023-04-10T15:16:58.370Z,35.34
2023-04-10T15:19:26.752Z,35.96
2023-04-10T15:21:55.848Z,36.95
2023-04-10T15:24:24.399Z,34.32
2023-04-10T15:26:53.601Z,35.38
2023-04-10T15:29:21.953Z,34.48
2023-04-10T15:31:51.964Z,35.13
2023-04-10T15:34:20.549Z,35.55
2023-04-10T15:36:48.758Z,35.58
2023-04-10T15:39:17.405Z,37.57
2023-04-10T15:41:45.704Z,36.30
2023-04-10T15:44:14.164Z,37.54
2023-04-10T15:46:42.456Z,35.84
2023-04-10T15:49:12.139Z,35.54
2023-04-10T15:51:41.241Z,35.98
2023-04-10T15:54:11.008Z,35.68
2023-04-10T15:56:40.807Z,36.18
2023-04-10T15:59:09.330Z,36.73
2023-04-10T16:01:37.744Z,36.72
2023-04-10T16:04:06.400Z,33.42
2023-04-10T16:06:36.127Z,35.03
2023-04-10T16:09:12.452Z,33.54
2023-04-10T16:11:51.409Z,34.90
2023-04-10T16:14:20.088Z,34.16
2023-04-10T16:16:48.290Z,35.59
2023-04-10T16:19:16.708Z,37.60
2023-04-10T16:21:46.531Z,36.88
2023-04-10T16:24:15.105Z,35.81
2023-04-10T16:26:43.403Z,36.25
2023-04-10T16:29:11.562Z,37.30
2023-04-10T16:31:40.431Z,37.88
2023-04-10T16:34:08.772Z,37.96
2023-04-10T16:36:37.042Z,39.59
2023-04-10T16:39:07.966Z,38.38
2023-04-10T16:41:42.996Z,39.69
2023-04-10T16:44:11.367Z,40.34
2023-04-10T16:46:39.841Z,42.08
2023-04-10T16:49:08.482Z,41.73
2023-04-10T16:51:36.755Z,42.11
2023-04-10T16:54:06.744Z,42.81
2023-04-10T16:56:34.927Z,42.34
2023-04-10T16:59:03.333Z,43.14
2023-04-10T17:01:32.177Z,42.78
2023-04-10T17:04:01.068Z,42.48
2023-04-10T17:06:29.295Z,42.94
2023-04-10T17:08:58.121Z,43.12
2023-04-10T17:11:29.504Z,42.79
2023-04-10T17:13:58.567Z,42.71
2023-04-10T17:16:27.516Z,43.00
2023-04-10T17:18:56.019Z,42.89
2023-04-10T17:21:47.364Z,43.29
2023-04-10T17:24:15.676Z,43.26
2023-04-10T17:26:45.601Z,44.28
2023-04-10T17:29:13.781Z,45.01
2023-04-10T17:31:42.786Z,45.91
2023-04-10T17:34:11.193Z,46.38
2023-04-10T17:36:39.860Z,46.85
2023-04-10T17:39:08.279Z,47.17
2023-04-10T17:41:36.747Z,47.50
2023-04-10T17:44:06.451Z,47.79
2023-04-10T17:46:35.116Z,48.34
2023-04-10T17:49:03.723Z,49.04
2023-04-10T17:51:32.752Z,48.83
2023-04-10T17:54:01.359Z,49.38
2023-04-10T17:56:30.738Z,50.37
2023-04-10T17:59:00.693Z,51.91
2023-04-10T18:01:31.258Z,52.13
2023-04-10T18:04:00.360Z,52.05
2023-04-10T18:06:28.666Z,53.08
2023-04-10T18:08:57.860Z,55.07
2023-04-10T18:11:26.248Z,56.33
2023-04-10T18:13:55.644Z,56.25
2023-04-10T18:16:23.837Z,56.50
2023-04-10T18:18:54.158Z,56.81
2023-04-10T18:21:22.796Z,56.92
2023-04-10T18:23:51.297Z,57.97
2023-04-10T18:26:21.037Z,57.06
2023-04-10T18:28:49.756Z,57.50
2023-04-10T18:31:19.168Z,57.41
2023-04-10T18:33:56.184Z,57.23
2023-04-10T18:36:33.860Z,57.15
2023-04-10T18:39:02.456Z,56.86
2023-04-10T18:41:30.415Z,56.70
2023-04-10T18:44:04.814Z,56.44
2023-04-10T18:46:34.492Z,56.72
2023-04-10T18:49:03.364Z,58.89
2023-04-10T18:51:35.602Z,57.43
2023-04-10T18:54:04.146Z,57.70
2023-04-10T18:56:32.703Z,57.82
2023-04-10T18:59:01.192Z,57.84
2023-04-10T19:01:29.340Z,57.89
2023-04-10T19:03:57.814Z,58.76
2023-04-10T19:06:26.986Z,59.15
2023-04-10T19:08:56.811Z,60.42
2023-04-10T19:11:25.754Z,61.12
2023-04-10T19:13:54.612Z,60.10
2023-04-10T19:16:23.085Z,59.60
2023-04-10T19:18:51.403Z,60.69
2023-04-10T19:21:19.892Z,59.59
2023-04-10T19:23:48.196Z,60.20
2023-04-10T19:26:20.205Z,60.33
2023-04-10T19:28:48.407Z,60.17
2023-04-10T19:31:17.103Z,61.07
2023-04-10T19:33:46.311Z,61.09
2023-04-10T19:36:16.942Z,60.81
2023-04-10T19:38:48.949Z,60.79
2023-04-10T19:41:19.168Z,60.51
2023-04-10T19:43:48.148Z,61.36
2023-04-10T19:46:18.079Z,62.09
2023-04-10T19:48:46.655Z,63.15
2023-04-10T19:51:14.707Z,63.86
2023-04-10T19:53:43.188Z,63.59
2023-04-10T19:56:11.589Z,63.43
2023-04-10T19:58:42.153Z,62.75
2023-04-10T20:01:11.998Z,63.02
2023-04-10T20:03:40.739Z,62.69
2023-04-10T20:06:10.163Z,62.42
2023-04-10T20:08:38.746Z,62.98
2023-04-10T20:11:07.402Z,62.34
2023-04-10T20:13:35.921Z,62.38
2023-04-10T20:16:05.681Z,62.49
2023-04-10T20:18:33.961Z,62.44
2023-04-10T20:21:02.112Z,62.48
2023-04-10T20:23:30.237Z,63.51
2023-04-10T20:25:59.005Z,63.65
2023-04-10T20:28:27.029Z,63.32
2023-04-10T20:30:55.183Z,62.79
2023-04-10T20:33:24.560Z,63.50
2023-04-10T20:35:54.187Z,62.79
2023-04-10T20:38:22.592Z,63.51
2023-04-10T20:40:50.983Z,63.95
2023-04-10T20:43:19.072Z,62.65
2023-04-10T20:45:47.667Z,62.54
2023-04-10T20:48:16.066Z,61.62
2023-04-10T20:50:49.479Z,61.94
2023-04-10T20:53:17.675Z,62.43
2023-04-10T20:55:46.036Z,62.64
2023-04-10T20:58:14.402Z,62.50
2023-04-10T21:00:42.935Z,62.67
2023-04-10T21:03:11.399Z,62.82
2023-04-10T21:05:41.576Z,62.54
2023-04-10T21:08:13.002Z,62.99
2023-04-10T21:10:44.314Z,62.55
2023-04-10T21:13:14.164Z,62.05
2023-04-10T21:15:43.027Z,62.12
2023-04-10T21:18:12.359Z,62.55
2023-04-10T21:20:40.454Z,62.88
2023-04-10T21:23:10.305Z,62.88
2023-04-10T21:25:40.066Z,62.40
2023-04-10T21:28:08.650Z,62.06
2023-04-10T21:30:36.809Z,62.04
2023-04-10T21:33:05.139Z,62.34
2023-04-10T21:35:33.490Z,62.44
2023-04-10T21:38:02.680Z,62.24
2023-04-10T21:40:34.530Z,61.67
2023-04-10T21:43:02.889Z,62.30
2023-04-10T21:45:30.871Z,62.45
2023-04-10T21:48:00.516Z,62.90
2023-04-10T21:50:28.825Z,62.96
2023-04-10T21:52:57.546Z,62.40
2023-04-10T21:55:25.671Z,62.83
2023-04-10T21:57:55.080Z,62.99
2023-04-10T22:00:23.305Z,62.30
2023-04-10T22:02:52.212Z,62.34
2023-04-10T22:05:24.571Z,61.87
2023-04-10T22:07:53.266Z,61.93
2023-04-10T22:10:21.844Z,61.95
2023-04-10T22:12:50.096Z,61.35
2023-04-10T22:15:19.743Z,61.49
2023-04-10T22:17:47.875Z,61.51
2023-04-10T22:20:15.897Z,60.68
2023-04-10T22:22:44.334Z,61.92
2023-04-10T22:25:12.664Z,61.39
2023-04-10T22:27:40.754Z,61.94
2023-04-10T22:30:10.805Z,62.85
2023-04-10T22:32:40.347Z,63.00
2023-04-10T22:35:09.447Z,62.93
2023-04-10T22:37:37.666Z,63.29
2023-04-10T22:40:07.289Z,63.38
2023-04-10T22:42:35.475Z,63.13
2023-04-10T22:45:03.702Z,63.89
2023-04-10T22:47:32.352Z,63.94
2023-04-10T22:50:02.198Z,64.38
2023-04-10T22:52:30.527Z,64.76
2023-04-10T22:54:58.691Z,64.69
2023-04-10T22:57:27.090Z,65.49
2023-04-10T22:59:55.402Z,64.73
2023-04-10T23:02:23.724Z,64.68
2023-04-10T23:04:52.146Z,65.57
2023-04-10T23:07:21.604Z,65.63
2023-04-10T23:09:49.636Z,65.30
2023-04-10T23:12:17.698Z,64.06
2023-04-10T23:14:45.855Z,64.02
2023-04-10T23:17:14.156Z,64.64
2023-04-10T23:19:42.433Z,65.28
2023-04-10T23:22:10.787Z,65.87
2023-04-10T23:24:40.406Z,65.93
2023-04-10T23:27:08.703Z,66.22
2023-04-10T23:29:36.975Z,66.75
2023-04-10T23:32:05.934Z,63.99
2023-04-10T23:34:34.022Z,63.62
2023-04-10T23:37:02.120Z,63.27
2023-04-10T23:39:30.151Z,62.24
2023-04-10T23:42:00.502Z,62.01
2023-04-10T23:44:28.631Z,62.47
2023-04-10T23:46:56.857Z,61.98
2023-04-10T23:49:24.986Z,62.03
2023-04-10T23:51:52.976Z,63.08
2023-04-10T23:54:21.144Z,61.32
2023-04-10T23:56:49.662Z,61.39
2023-04-10T23:59:19.413Z,59.94
